Time;durP1;ratioP1;P1;durP2;ratioP2;P2;SDS_P1;SDS_P2;PMS_P1;PMS_P2;Temp;Humidity;BMP_temperature;BMP_pressure;BME280_temperature;BME280_humidity;BME280_pressure;Samples;Min_cycle;Max_cycle;Signal;HPM_P1;HPM_P2
2023/07/03 00:04:45;;;;;;;;;;;;;;;;;;;;;
2023/07/03 00:10:44;;;;;;;5.70;5.10;;;;;;;17.64;74.20;98303.23;226010;1276;22533;-79
2023/07/03 00:16:10;;;;;;;5.70;5.20;;;;;;;17.65;74.20;98301.86;226412;1274;22589;-79
2023/07/03 00:21:40;;;;;;;5.30;4.60;;;;;;;17.66;74.23;98305.98;226319;1254;22559;-78
2023/07/03 00:27:47;;;;;;;8.10;5.10;;;;;;;17.66;74.14;98312.48;226304;1276;22544;-78
2023/07/03 00:33:20;;;;;;;6.90;5.40;;;;;;;17.62;74.29;98313.27;226349;1263;25278;-78
2023/07/03 00:39:28;;;;;;;9.10;6.30;;;;;;;17.53;74.38;98318.67;226381;1276;22541;-78
2023/07/03 00:45:26;;;;;;;7.30;6.20;;;;;;;17.44;74.51;98322.21;226420;1268;22564;-78
2023/07/03 00:51:20;;;;;;;7.20;5.80;;;;;;;17.39;74.56;98327.25;226440;1276;22547;-78
2023/07/03 00:57:33;;;;;;;8.30;6.80;;;;;;;17.36;74.83;98324.45;226475;1266;22531;-77
2023/07/03 01:03:32;;;;;;;9.40;6.60;;;;;;;17.31;75.00;98329.34;226413;1262;22566;-78
2023/07/03 01:09:32;;;;;;;7.40;6.50;;;;;;;17.25;75.23;98331.48;225670;1281;22947;-78
2023/07/03 01:14:55;;;;;;;;;;;;;;;;;;;;;
2023/07/03 01:20:34;;;;;;;10.00;7.00;;;;;;;17.06;75.93;98326.83;226236;1275;25951;-78
2023/07/03 01:26:13;;;;;;;7.30;6.30;;;;;;;16.99;76.21;98328.73;226377;1275;22541;-78
2023/07/03 01:31:57;;;;;;;8.40;6.70;;;;;;;16.86;76.32;98328.29;226299;1276;22553;-77
2023/07/03 01:38:03;;;;;;;;;;;;;;;;;;;;;
2023/07/03 01:43:09;;;;;;;9.20;7.20;;;;;;;16.60;76.35;98325.16;226603;1271;22533;-78
2023/07/03 01:48:45;;;;;;;8.10;6.90;;;;;;;16.51;76.20;98325.46;226477;1273;24228;-78
2023/07/03 01:55:05;;;;;;;;;;;;;;;;;;;;;
2023/07/03 02:01:11;;;;;;;11.10;7.30;;;;;;;16.32;76.44;98327.11;226338;1276;22538;-78
2023/07/03 02:06:52;;;;;;;7.90;7.00;;;;;;;16.19;76.85;98332.55;226448;1276;22560;-79
2023/07/03 02:12:57;;;;;;;7.80;7.00;;;;;;;16.07;76.83;98334.36;226589;1276;23276;-79
2023/07/03 02:19:35;;;;;;;9.10;7.30;;;;;;;15.93;77.20;98336.20;226490;1276;22550;-79
2023/07/03 02:25:39;;;;;;;;;;;;;;;;;;;;;
2023/07/03 02:32:03;;;;;;;8.20;6.70;;;;;;;15.60;77.99;98336.84;226385;1276;22747;-78
2023/07/03 02:37:09;;;;;;;9.00;7.00;;;;;;;15.47;78.06;98333.38;226464;1276;22597;-79
2023/07/03 02:43:11;;;;;;;9.10;6.40;;;;;;;15.37;78.17;98336.17;226401;1254;22528;-79
2023/07/03 02:48:44;;;;;;;7.80;7.00;;;;;;;15.31;78.28;98334.51;226319;1274;22565;-78
2023/07/03 02:59:48;;;;;;;8.70;7.80;;;;;;;15.23;78.95;98330.80;226287;1261;22599;-79
2023/07/03 03:05:07;;;;;;;8.80;7.90;;;;;;;15.18;78.69;98328.19;226630;1271;22551;-78
2023/07/03 03:10:39;;;;;;;8.70;7.90;;;;;;;15.18;79.05;98330.64;226514;1276;24223;-78
2023/07/03 03:16:41;;;;;;;10.90;8.70;;;;;;;15.23;79.32;98326.98;226330;1276;22542;-79
2023/07/03 03:22:44;;;;;;;;;;;;;;;;;;;;;
2023/07/03 03:40:34;;;;;;;12.10;8.80;;;;;;;17.03;78.81;98310.44;226314;1276;22533;-78
2023/07/03 03:46:10;;;;;;;8.70;7.40;;;;;;;17.63;77.71;98312.70;226532;1276;22544;-78
2023/07/03 03:52:32;;;;;;;9.20;7.80;;;;;;;17.67;76.37;98317.26;226476;1276;22532;-79
2023/07/03 03:58:01;;;;;;;8.20;7.40;;;;;;;17.57;76.68;98316.92;226533;1276;22568;-78
2023/07/03 04:03:20;;;;;;;8.70;7.80;;;;;;;17.51;75.93;98316.88;226418;1263;22532;-79
2023/07/03 04:09:11;;;;;;;8.60;7.80;;;;;;;17.48;75.38;98322.44;226489;1276;22549;-79
2023/07/03 04:14:54;;;;;;;8.50;7.20;;;;;;;17.39;76.05;98323.67;226561;1270;22535;-79
2023/07/03 04:20:13;;;;;;;9.80;7.40;;;;;;;17.45;76.06;98328.34;226568;1273;22547;-78
2023/07/03 04:26:27;;;;;;;;;;;;;;;;;;;;;
2023/07/03 04:33:39;;;;;;;8.90;7.90;;;;;;;17.53;75.95;98335.45;226062;1276;22549;-79
2023/07/03 04:38:50;;;;;;;8.50;7.60;;;;;;;17.56;75.77;98335.38;226522;1276;22536;-79
2023/07/03 04:43:57;;;;;;;7.90;7.00;;;;;;;17.58;76.11;98335.86;226418;1275;24292;-79
2023/07/03 04:49:18;;;;;;;11.10;7.30;;;;;;;17.66;76.15;98339.19;226484;1271;25220;-79
2023/07/03 04:54:24;;;;;;;10.50;6.50;;;;;;;17.78;76.11;98342.96;226625;1271;22538;-79
2023/07/03 04:59:42;;;;;;;8.50;6.40;;;;;;;17.91;75.81;98340.19;226662;1272;25255;-78
2023/07/03 05:05:18;;;;;;;8.60;6.70;;;;;;;17.99;75.36;98347.21;226620;1268;22553;-79
2023/07/03 05:10:52;;;;;;;;;;;;;;;;;;;;;
2023/07/03 05:16:20;;;;;;;;;;;;;;;;;;;;;
2023/07/03 05:27:44;;;;;;;9.60;5.90;;;;;;;18.52;74.57;98346.52;226646;1276;22535;-78
2023/07/03 05:33:21;;;;;;;10.40;6.20;;;;;;;18.73;74.20;98353.21;226602;1276;22578;-79
2023/07/03 05:38:23;;;;;;;12.00;5.60;;;;;;;18.87;73.58;98352.40;226668;1274;22537;-79
2023/07/03 05:43:56;;;;;;;8.50;5.40;;;;;;;19.05;73.34;98358.10;226420;1268;22572;-79
2023/07/03 05:48:59;;;;;;;11.40;5.90;;;;;;;19.25;72.71;98360.60;226204;1269;25243;-77
2023/07/03 05:54:01;;;;;;;8.50;5.70;;;;;;;19.33;71.67;98362.10;226210;1257;22582;-79
2023/07/03 05:59:23;;;;;;;11.50;8.30;;;;;;;19.42;71.19;98366.65;226062;1271;25289;-78
2023/07/03 06:04:52;;;;;;;8.00;4.80;;;;;;;19.55;70.76;98373.69;226074;1261;139112;-78
2023/07/03 06:09:57;;;;;;;6.80;4.40;;;;;;;19.68;70.49;98369.89;225693;1272;24469;-79
2023/07/03 06:15:02;;;;;;;6.60;4.60;;;;;;;19.87;70.16;98374.30;225523;1265;138754;-77
2023/07/03 06:20:15;;;;;;;6.30;4.30;;;;;;;20.08;70.15;98372.30;222823;1262;3019182;-77
2023/07/03 06:25:19;;;;;;;8.40;4.80;;;;;;;20.25;68.85;98372.66;225888;1272;138058;-77
2023/07/03 06:30:50;;;;;;;6.20;4.50;;;;;;;20.40;68.63;98378.08;225354;1266;138054;-76
2023/07/03 06:36:21;;;;;;;7.70;4.60;;;;;;;20.53;68.03;98374.44;225391;1268;138012;-77
2023/07/03 06:41:45;;;;;;;5.90;4.40;;;;;;;20.70;67.08;98376.66;225522;1256;137558;-77
2023/07/03 06:47:01;;;;;;;5.40;4.20;;;;;;;20.83;66.20;98375.30;225232;1256;137412;-76
2023/07/03 06:52:05;;;;;;;5.30;4.20;;;;;;;20.95;65.79;98371.94;225416;1275;22528;-77
2023/07/03 06:57:34;;;;;;;5.10;4.20;;;;;;;21.13;65.75;98367.80;225410;1259;136845;-78
2023/07/03 07:03:31;;;;;;;4.10;3.60;;;;;;;21.33;65.12;98368.98;225528;1263;137346;-79
2023/07/03 07:08:34;;;;;;;8.50;3.90;;;;;;;21.54;63.87;98369.53;225652;1266;137089;-78
2023/07/03 07:13:54;;;;;;;7.60;4.30;;;;;;;21.69;63.32;98363.28;225506;1271;137670;-79
2023/07/03 07:19:10;;;;;;;5.60;4.40;;;;;;;21.91;63.13;98360.19;225869;1268;137889;-78
2023/07/03 07:24:44;;;;;;;7.60;4.80;;;;;;;22.07;62.59;98359.55;225866;1272;137383;-77
2023/07/03 07:30:25;;;;;;;6.60;4.60;;;;;;;22.19;61.47;98364.63;225831;1262;137206;-77
2023/07/03 07:35:36;;;;;;;10.10;6.20;;;;;;;22.32;60.78;98364.16;225632;1257;137217;-77
2023/07/03 07:47:57;;;;;;;9.00;6.30;;;;;;;22.58;58.69;98360.56;225777;1266;137424;-78
2023/07/03 07:53:26;;;;;;;;;;;;;;;;;;;;;
2023/07/03 07:58:33;;;;;;;9.90;6.80;;;;;;;22.83;57.12;98353.48;225636;1272;22598;-79
2023/07/03 08:03:39;;;;;;;8.40;7.20;;;;;;;22.99;56.94;98357.05;225064;1277;22541;-78
2023/07/03 08:09:24;;;;;;;8.70;7.60;;;;;;;23.22;56.63;98352.25;225375;1279;136932;-77
2023/07/03 08:14:48;;;;;;;10.20;7.60;;;;;;;23.44;55.03;98351.55;225133;1280;137346;-77
2023/07/03 08:19:50;;;;;;;24.60;9.30;;;;;;;23.70;53.65;98355.36;225115;1274;136799;-79
2023/07/03 08:25:05;;;;;;;13.30;8.30;;;;;;;24.01;52.69;98355.11;225202;1264;137418;-78
2023/07/03 08:30:12;;;;;;;11.90;8.60;;;;;;;24.22;50.90;98358.68;225457;1275;137555;-78
2023/07/03 08:35:43;;;;;;;10.20;8.40;;;;;;;24.37;49.55;98364.59;225089;1262;137741;-80
2023/07/03 08:41:01;;;;;;;12.30;8.20;;;;;;;24.47;49.70;98360.85;225232;1274;137515;-75
2023/07/03 08:46:19;;;;;;;;;;;;;;;;;;;;;
2023/07/03 08:51:47;;;;;;;15.30;9.10;;;;;;;25.22;50.33;98362.12;225257;1275;22571;-77
2023/07/03 08:57:11;;;;;;;15.70;9.40;;;;;;;25.32;48.54;98365.88;225547;1273;137063;-76
2023/07/03 09:02:30;;;;;;;14.90;9.00;;;;;;;25.23;48.45;98362.39;225270;1267;137452;-75
2023/07/03 09:08:03;;;;;;;14.00;9.70;;;;;;;25.34;47.97;98365.27;225358;1274;137370;-75
2023/07/03 09:13:42;;;;;;;12.90;9.70;;;;;;;25.43;47.47;98364.67;225385;1261;137559;-74
2023/07/03 09:19:15;;;;;;;;;;;;;;;;;;;;;
2023/07/03 09:24:27;;;;;;;12.60;9.20;;;;;;;25.55;46.70;98362.22;225349;1273;137544;-76
2023/07/03 09:29:33;;;;;;;12.30;9.60;;;;;;;25.76;46.96;98356.98;225338;1277;137397;-76
2023/07/03 09:35:17;;;;;;;18.50;11.80;;;;;;;25.98;46.53;98352.56;224756;1272;140193;-75
2023/07/03 09:40:19;;;;;;;12.80;10.20;;;;;;;26.06;46.86;98356.91;224997;1278;22792;-74
2023/07/03 09:45:29;;;;;;;13.80;10.00;;;;;;;26.10;45.51;98357.73;225114;1283;137318;-74
2023/07/03 09:50:38;;;;;;;15.70;11.30;;;;;;;25.96;45.60;98361.70;224815;1281;137480;-76
2023/07/03 09:55:55;;;;;;;14.00;10.50;;;;;;;25.97;46.25;98361.95;224903;1284;137625;-76
2023/07/03 10:01:31;;;;;;;13.30;10.20;;;;;;;26.06;46.95;98364.27;225768;1280;137549;-76
2023/07/03 10:06:37;;;;;;;12.20;9.80;;;;;;;26.07;46.02;98363.71;225265;1279;137621;-77
2023/07/03 10:11:58;;;;;;;13.20;10.40;;;;;;;26.17;45.81;98362.39;225554;1259;137373;-75
2023/07/03 10:17:18;;;;;;;12.40;9.60;;;;;;;26.23;45.73;98358.44;225543;1277;137568;-75
2023/07/03 10:22:43;;;;;;;11.40;9.30;;;;;;;26.40;44.86;98352.28;225893;1256;24260;-75
2023/07/03 10:28:21;;;;;;;12.70;9.40;;;;;;;26.48;45.55;98359.45;225920;1270;22568;-75
2023/07/03 10:33:28;;;;;;;12.60;9.10;;;;;;;26.74;45.09;98352.11;225724;1266;137084;-75
2023/07/03 10:38:55;;;;;;;13.90;8.80;;;;;;;26.89;44.41;98345.34;225686;1262;137600;-75
2023/07/03 10:44:17;;;;;;;16.00;9.70;;;;;;;26.73;43.76;98349.33;225873;1276;138150;-74
2023/07/03 10:49:36;;;;;;;14.80;9.40;;;;;;;26.97;43.70;98344.25;225848;1276;137673;-74
2023/07/03 10:54:52;;;;;;;12.40;8.60;;;;;;;26.97;43.28;98339.66;225648;1269;137484;-74
2023/07/03 11:00:07;;;;;;;12.80;9.60;;;;;;;26.90;43.54;98345.01;225857;1269;137726;-75
2023/07/03 11:05:21;;;;;;;12.50;9.60;;;;;;;26.67;43.97;98340.39;225799;1267;137858;-75
2023/07/03 11:10:43;;;;;;;12.40;8.70;;;;;;;26.51;44.32;98331.25;225757;1278;22547;-74
2023/07/03 11:16:24;;;;;;;18.40;9.70;;;;;;;26.68;44.95;98330.84;225959;1275;22576;-77
2023/07/03 11:21:51;;;;;;;10.70;8.50;;;;;;;27.10;44.56;98323.40;225577;1260;137069;-74
2023/07/03 11:27:12;;;;;;;12.10;8.70;;;;;;;27.39;44.30;98317.49;225458;1266;137367;-73
2023/07/03 11:32:18;;;;;;;10.70;8.50;;;;;;;27.52;43.87;98323.44;225515;1276;137314;-73
2023/07/03 11:38:08;;;;;;;13.30;9.30;;;;;;;27.47;43.61;98328.04;225567;1277;137478;-73
2023/07/03 11:43:24;;;;;;;14.10;9.20;;;;;;;27.42;43.01;98323.73;225032;1267;137419;-75
2023/07/03 11:48:29;;;;;;;11.50;8.70;;;;;;;27.26;43.50;98325.92;225530;1266;137828;-74
2023/07/03 11:53:32;;;;;;;11.90;8.70;;;;;;;27.51;43.19;98319.33;225558;1267;137917;-75
2023/07/03 11:58:34;;;;;;;10.30;8.10;;;;;;;27.51;43.16;98320.63;225349;1278;24222;-75
2023/07/03 12:03:55;;;;;;;12.00;8.20;;;;;;;27.52;43.48;98316.69;225535;1278;136878;-75
2023/07/03 12:09:18;;;;;;;11.90;7.90;;;;;;;27.69;43.18;98308.95;225579;1277;137347;-74
2023/07/03 12:14:39;;;;;;;11.00;7.50;;;;;;;27.84;42.13;98315.10;225321;1279;137359;-73
2023/07/03 12:19:42;;;;;;;9.40;6.50;;;;;;;27.93;42.35;98318.66;225576;1272;137577;-75
2023/07/03 12:24:47;;;;;;;15.50;7.40;;;;;;;27.95;41.67;98326.90;225715;1278;137389;-76
2023/07/03 12:29:50;;;;;;;12.80;7.20;;;;;;;27.77;41.25;98330.37;225848;1279;137502;-74
2023/07/03 12:34:52;;;;;;;9.80;7.30;;;;;;;27.44;41.33;98319.89;225828;1275;137692;-75
2023/07/03 12:40:12;;;;;;;8.00;6.60;;;;;;;27.29;42.07;98320.08;225777;1278;22540;-75
2023/07/03 12:45:38;;;;;;;8.50;7.00;;;;;;;27.51;43.03;98317.32;225763;1280;136834;-75
2023/07/03 12:51:08;;;;;;;9.10;7.60;;;;;;;27.72;42.55;98316.44;225846;1279;137166;-74
2023/07/03 12:56:21;;;;;;;11.70;7.30;;;;;;;27.58;42.14;98312.81;225783;1275;137058;-74
2023/07/03 13:01:24;;;;;;;10.90;6.40;;;;;;;27.50;42.72;98312.35;225801;1275;137011;-74
2023/07/03 13:06:29;;;;;;;12.50;7.50;;;;;;;27.62;42.57;98313.36;225953;1268;137570;-75
2023/07/03 13:11:36;;;;;;;9.60;7.00;;;;;;;27.71;42.14;98310.48;225803;1277;138043;-75
2023/07/03 13:16:40;;;;;;;8.70;6.80;;;;;;;27.80;42.61;98307.55;225352;1266;24357;-75
2023/07/03 13:21:50;;;;;;;9.00;6.60;;;;;;;27.69;41.33;98311.19;225382;1272;136775;-74
2023/07/03 13:26:53;;;;;;;10.00;7.00;;;;;;;27.56;41.51;98309.55;225290;1278;137320;-74
2023/07/03 13:32:34;;;;;;;9.80;6.60;;;;;;;27.42;41.16;98305.38;225744;1277;137457;-74
2023/07/03 13:37:43;;;;;;;9.40;6.70;;;;;;;27.38;41.82;98304.40;225174;1276;137406;-75
2023/07/03 13:42:56;;;;;;;9.20;6.40;;;;;;;27.42;41.81;98311.10;225513;1262;137203;-74
2023/07/03 13:47:58;;;;;;;8.60;7.10;;;;;;;27.30;41.22;98309.02;225561;1271;137477;-75
2023/07/03 13:53:02;;;;;;;9.00;7.20;;;;;;;27.33;42.29;98305.22;225340;1273;137348;-74
2023/07/03 13:58:06;;;;;;;7.90;7.00;;;;;;;27.49;41.82;98308.52;225502;1263;22545;-75
2023/07/03 14:03:09;;;;;;;10.30;7.40;;;;;;;27.44;41.87;98314.75;225119;1276;136985;-74
2023/07/03 14:08:12;;;;;;;10.50;7.40;;;;;;;27.49;42.06;98315.58;225037;1271;22636;-74
2023/07/03 14:13:14;;;;;;;9.50;7.00;;;;;;;27.59;42.05;98313.81;225300;1280;22540;-75
2023/07/03 14:18:26;;;;;;;10.20;8.00;;;;;;;27.72;41.49;98313.84;225387;1279;25979;-77
2023/07/03 14:23:44;;;;;;;9.20;6.90;;;;;;;27.70;41.41;98317.52;225671;1276;24271;-76
2023/07/03 14:28:54;;;;;;;10.10;7.10;;;;;;;27.66;41.66;98316.52;225723;1280;22563;-77
2023/07/03 14:34:17;;;;;;;9.30;6.90;;;;;;;27.66;41.41;98313.80;225754;1276;22558;-75
2023/07/03 14:39:26;;;;;;;10.10;7.30;;;;;;;27.72;41.24;98310.77;225726;1280;22550;-76
2023/07/03 14:44:31;;;;;;;10.10;6.90;;;;;;;27.61;40.72;98310.48;225759;1280;22624;-76
2023/07/03 14:49:48;;;;;;;10.10;7.50;;;;;;;27.45;40.96;98308.40;225743;1280;22541;-76
2023/07/03 14:54:58;;;;;;;9.70;6.80;;;;;;;27.25;41.82;98305.64;225710;1280;22550;-75
2023/07/03 15:00:00;;;;;;;8.80;7.10;;;;;;;27.15;42.01;98305.93;225746;1278;22550;-75
2023/07/03 15:05:03;;;;;;;9.80;7.50;;;;;;;27.15;42.18;98307.23;225750;1280;22549;-76
2023/07/03 15:10:06;;;;;;;9.70;7.40;;;;;;;27.07;41.68;98304.60;225728;1279;22543;-76
2023/07/03 15:15:08;;;;;;;10.40;7.70;;;;;;;26.92;41.99;98298.27;225712;1279;22579;-75
2023/07/03 15:20:14;;;;;;;8.60;7.20;;;;;;;26.80;42.10;98300.38;225730;1280;22569;-75
2023/07/03 15:25:16;;;;;;;10.90;7.80;;;;;;;26.54;42.07;98299.30;225717;1278;22923;-76
2023/07/03 15:30:22;;;;;;;8.80;7.10;;;;;;;26.46;42.41;98297.58;225636;1257;22527;-75
2023/07/03 15:35:27;;;;;;;9.50;7.20;;;;;;;26.46;42.34;98294.61;225772;1280;22559;-76
2023/07/03 15:40:30;;;;;;;12.10;7.30;;;;;;;26.45;42.73;98297.05;225793;1279;22548;-75
2023/07/03 15:45:44;;;;;;;13.50;7.30;;;;;;;26.43;42.88;98295.38;225745;1280;25410;-75
2023/07/03 15:50:58;;;;;;;9.10;7.20;;;;;;;26.49;42.99;98287.83;225747;1276;24287;-76
2023/07/03 15:56:23;;;;;;;9.00;6.60;;;;;;;26.50;42.58;98282.17;225701;1280;22678;-76
2023/07/03 16:01:58;;;;;;;11.60;7.10;;;;;;;26.45;42.82;98285.35;225746;1280;22565;-75
2023/07/03 16:07:16;;;;;;;9.00;6.90;;;;;;;26.52;43.17;98288.73;225804;1277;22565;-76
2023/07/03 16:12:22;;;;;;;9.10;6.70;;;;;;;26.56;43.02;98287.62;225665;1280;22542;-76
2023/07/03 16:17:25;;;;;;;12.00;7.10;;;;;;;26.57;43.45;98284.62;225733;1280;22546;-75
2023/07/03 16:22:27;;;;;;;9.80;6.80;;;;;;;26.64;43.60;98282.50;225745;1280;22555;-76
2023/07/03 16:27:39;;;;;;;9.70;7.30;;;;;;;26.73;43.48;98280.14;225695;1280;22554;-76
2023/07/03 16:32:49;;;;;;;10.00;6.80;;;;;;;26.72;42.92;98284.05;225744;1276;22567;-77
2023/07/03 16:38:15;;;;;;;11.80;6.90;;;;;;;26.71;43.12;98279.98;225796;1279;25198;-76
2023/07/03 16:43:27;;;;;;;9.00;7.20;;;;;;;26.74;43.37;98286.55;225716;1274;22563;-76
2023/07/03 16:48:35;;;;;;;7.70;6.90;;;;;;;26.76;43.15;98287.66;225742;1279;22579;-76
2023/07/03 16:54:05;;;;;;;9.80;7.30;;;;;;;26.83;43.44;98286.59;225769;1280;22589;-76
2023/07/03 16:59:08;;;;;;;10.40;6.60;;;;;;;26.89;43.09;98285.80;225734;1276;22557;-76
2023/07/03 17:04:20;;;;;;;8.80;7.00;;;;;;;26.88;43.35;98289.42;225723;1276;22550;-76
2023/07/03 17:14:34;;;;;;;10.80;7.30;;;;;;;26.92;44.14;98289.48;225737;1280;22551;-76
2023/07/03 17:19:39;;;;;;;10.90;7.20;;;;;;;27.68;44.79;98293.15;225736;1276;22722;-77
2023/07/03 17:24:41;;;;;;;10.10;6.90;;;;;;;28.80;44.46;98291.48;225755;1277;22540;-77
2023/07/03 17:29:46;;;;;;;9.10;7.10;;;;;;;29.76;43.27;98295.44;225579;1280;22554;-76
2023/07/03 17:34:50;;;;;;;8.40;7.10;;;;;;;30.36;42.47;98293.40;225781;1279;22547;-76
2023/07/03 17:39:52;;;;;;;7.90;7.10;;;;;;;30.92;42.14;98291.31;225724;1273;22571;-76
2023/07/03 17:45:13;;;;;;;;;;;;;;;;;;;;;
2023/07/03 17:50:15;;;;;;;8.60;6.80;;;;;;;30.61;40.98;98294.70;225793;1277;22542;-76
2023/07/03 17:55:17;;;;;;;9.90;6.50;;;;;;;29.61;41.37;98295.75;225757;1257;22645;-76
2023/07/03 18:00:19;;;;;;;9.50;8.10;;;;;;;28.63;42.62;98294.93;225770;1279;22568;-76
2023/07/03 18:05:25;;;;;;;9.80;8.30;;;;;;;27.94;43.47;98300.16;225741;1276;22591;-76
2023/07/03 18:10:29;;;;;;;10.50;8.30;;;;;;;27.41;44.04;98295.76;225761;1277;22546;-75
2023/07/03 18:15:32;;;;;;;12.40;8.80;;;;;;;26.89;44.31;98298.11;225770;1273;22563;-76
2023/07/03 18:20:59;;;;;;;13.70;9.80;;;;;;;26.40;44.52;98300.52;225463;1276;185631;-76
2023/07/03 18:26:04;;;;;;;13.00;10.70;;;;;;;26.02;45.14;98306.02;225730;1278;22543;-75
2023/07/03 18:36:54;;;;;;;12.30;9.00;;;;;;;25.36;45.63;98312.26;225804;1277;23034;-75
2023/07/03 18:41:56;;;;;;;11.50;8.60;;;;;;;25.10;45.79;98312.14;225791;1273;22562;-77
2023/07/03 18:47:18;;;;;;;13.70;9.30;;;;;;;24.84;45.95;98313.36;225733;1280;22561;-77
2023/07/03 18:53:15;;;;;;;12.40;8.80;;;;;;;24.56;46.70;98320.05;225604;1280;22603;-76
2023/07/03 18:57:59;;;;;;;12.50;8.20;;;;;;;24.29;47.19;98324.70;225697;1278;22556;-76
2023/07/03 19:03:11;;;;;;;10.20;8.00;;;;;;;24.10;47.20;98330.62;225765;1273;22585;-74
2023/07/03 19:08:21;;;;;;;13.50;8.60;;;;;;;23.91;47.51;98336.98;225750;1273;25427;-75
2023/07/03 19:13:44;;;;;;;12.60;8.90;;;;;;;23.74;48.01;98345.13;225777;1280;22531;-75
2023/07/03 19:18:57;;;;;;;10.10;8.30;;;;;;;23.57;48.84;98348.52;225869;1270;22730;-76
2023/07/03 19:24:03;;;;;;;11.40;8.60;;;;;;;23.39;49.77;98353.26;225809;1280;22542;-76
2023/07/03 19:29:05;;;;;;;12.20;8.20;;;;;;;23.22;50.43;98355.22;225743;1280;22550;-75
2023/07/03 19:34:20;;;;;;;11.40;8.80;;;;;;;23.04;50.86;98356.96;225722;1280;24208;-75
2023/07/03 19:39:24;;;;;;;10.10;7.90;;;;;;;22.87;51.56;98357.17;225631;1280;22589;-74
2023/07/03 19:44:29;;;;;;;11.60;8.20;;;;;;;22.72;51.96;98360.23;225752;1280;22578;-75
2023/07/03 19:49:44;;;;;;;13.10;7.40;;;;;;;22.57;52.25;98364.71;225573;1280;22542;-74
2023/07/03 19:55:04;;;;;;;;;;;;;;;;;;;;;
2023/07/03 20:00:20;;;;;;;12.70;8.20;;;;;;;22.29;54.00;98368.70;225653;1279;22553;-74
2023/07/03 20:05:45;;;;;;;11.40;9.10;;;;;;;22.19;54.94;98369.96;225707;1280;22556;-75
2023/07/03 20:11:01;;;;;;;13.80;9.00;;;;;;;22.09;55.49;98370.90;225767;1276;25374;-74
2023/07/03 20:16:07;;;;;;;13.10;8.80;;;;;;;22.00;55.77;98373.31;225744;1280;22561;-76
2023/07/03 20:21:11;;;;;;;13.30;9.00;;;;;;;21.92;56.24;98384.67;225767;1276;25458;-75
2023/07/03 20:26:13;;;;;;;13.50;8.20;;;;;;;21.82;56.78;98385.27;225762;1274;22539;-76
2023/07/03 20:31:23;;;;;;;12.30;8.40;;;;;;;21.68;57.27;98389.21;225800;1277;23023;-79
2023/07/03 20:36:26;;;;;;;13.30;9.10;;;;;;;21.53;57.96;98387.00;225782;1276;22543;-76
2023/07/03 20:41:34;;;;;;;14.90;8.70;;;;;;;21.39;57.99;98386.62;225761;1280;22561;-76
2023/07/03 20:46:45;;;;;;;12.40;8.40;;;;;;;21.26;58.19;98386.27;225797;1270;22550;-75
2023/07/03 20:51:53;;;;;;;15.20;8.20;;;;;;;21.11;58.03;98385.25;225750;1275;24279;-76
2023/07/03 20:57:04;;;;;;;14.30;8.50;;;;;;;21.00;58.16;98388.89;225746;1280;22649;-76
2023/07/03 21:02:07;;;;;;;18.60;10.70;;;;;;;20.93;58.91;98389.30;225725;1279;22718;-76
2023/07/03 21:07:20;;;;;;;22.20;13.60;;;;;;;20.87;59.53;98392.17;225757;1275;25558;-76
2023/07/03 21:12:25;;;;;;;18.80;12.50;;;;;;;20.84;60.03;98393.93;225817;1280;22560;-75
2023/07/03 21:17:58;;;;;;;20.20;12.90;;;;;;;20.80;60.58;98397.41;225761;1280;25285;-74
2023/07/03 21:23:00;;;;;;;18.20;12.40;;;;;;;20.77;61.13;98400.58;225603;1279;22533;-74
2023/07/03 21:28:04;;;;;;;20.60;12.90;;;;;;;20.71;61.85;98402.23;225792;1276;22553;-73
2023/07/03 21:33:07;;;;;;;21.10;12.80;;;;;;;20.66;62.32;98399.86;225630;1280;22536;-75
2023/07/03 21:38:17;;;;;;;23.80;13.80;;;;;;;20.62;62.73;98405.20;225572;1280;24243;-76
2023/07/03 21:43:39;;;;;;;;;;;;;;;;;;;;;
2023/07/03 21:48:58;;;;;;;18.60;11.40;;;;;;;20.55;63.63;98408.86;225740;1280;22597;-74
2023/07/03 21:54:30;;;;;;;18.80;11.10;;;;;;;20.50;63.59;98403.73;225820;1271;22547;-74
2023/07/03 21:59:47;;;;;;;20.30;10.70;;;;;;;20.43;63.43;98405.63;225781;1276;22563;-74
2023/07/03 22:04:52;;;;;;;17.40;10.60;;;;;;;20.37;63.57;98406.55;225779;1280;25374;-74
2023/07/03 22:10:07;;;;;;;;;;;;;;;;;;;;;
2023/07/03 22:15:12;;;;;;;19.90;10.90;;;;;;;20.22;63.34;98412.23;225794;1280;22539;-74
2023/07/03 22:20:57;;;;;;;18.20;11.00;;;;;;;20.13;63.41;98409.79;225765;1280;22534;-74
2023/07/03 22:26:02;;;;;;;21.70;11.80;;;;;;;20.03;63.58;98406.75;225755;1280;25302;-74
2023/07/03 22:31:26;;;;;;;20.60;11.80;;;;;;;19.91;63.99;98408.66;225793;1274;24230;-75
2023/07/03 22:36:31;;;;;;;18.60;12.10;;;;;;;19.76;64.47;98402.98;225678;1280;22534;-74
2023/07/03 22:41:34;;;;;;;17.60;11.70;;;;;;;19.63;64.78;98409.02;225773;1280;22589;-74
2023/07/03 22:46:39;;;;;;;17.90;11.80;;;;;;;19.55;65.05;98409.67;225792;1274;22573;-74
2023/07/03 22:51:47;;;;;;;18.00;11.10;;;;;;;19.48;65.15;98412.89;225751;1280;22569;-74
2023/07/03 22:57:12;;;;;;;18.30;11.50;;;;;;;19.39;65.28;98418.80;225758;1280;22558;-74
2023/07/03 23:02:32;;;;;;;15.30;10.50;;;;;;;19.32;65.54;98419.27;225685;1277;22604;-75
2023/07/03 23:08:28;;;;;;;19.00;11.40;;;;;;;19.27;66.01;98419.02;225787;1280;22484;-74
2023/07/03 23:13:41;;;;;;;17.00;11.50;;;;;;;19.24;66.24;98419.68;225802;1280;22559;-74
2023/07/03 23:19:22;;;;;;;18.00;12.40;;;;;;;19.19;66.59;98420.48;225656;1280;22528;-74
2023/07/03 23:25:13;;;;;;;14.70;10.90;;;;;;;19.16;66.92;98424.67;225800;1280;22526;-74
2023/07/03 23:30:39;;;;;;;18.90;11.60;;;;;;;19.16;67.06;98431.64;225730;1280;22551;-74
2023/07/03 23:36:33;;;;;;;18.90;11.30;;;;;;;19.14;67.06;98430.93;225784;1280;22551;-74
2023/07/03 23:41:41;;;;;;;19.80;12.00;;;;;;;19.11;67.08;98429.09;225740;1280;22548;-74
2023/07/03 23:46:48;;;;;;;18.20;12.00;;;;;;;19.06;67.15;98425.54;225693;1275;25115;-74
2023/07/03 23:52:12;;;;;;;18.00;12.10;;;;;;;18.97;67.37;98436.90;225666;1278;22526;-74
2023/07/03 23:57:17;;;;;;;19.80;12.10;;;;;;;18.85;67.81;98452.23;225652;1277;22609;-75
